This is the latest recevied weather packets stored in our database for station/object F5ZYU-10. If no packets are shown the sender has not sent any weather packets the latest 10 day(s).
| Time | Temp. | Humidity | Pressure | Rain* | Wind** | Luminosity | Snow |
|---|---|---|---|---|---|---|---|
| 1787760812 | 28.33° C | 47% | 1019 hPa | - | - | - | - |
| 1787759912 | 28.33° C | 47% | 1019 hPa | - | - | - | - |
| 1787759012 | 28.33° C | 42% | 1018.7 hPa | - | - | - | - |
| 1787758112 | 27.78° C | 50% | 1019 hPa | - | - | - | - |
| 1787756313 | 27.22° C | 53% | 1018.9 hPa | - | - | - | - |
| 1787754514 | 26.67° C | 52% | 1018.8 hPa | - | - | - | - |
| 1787753619 | 26.67° C | 52% | 1018.9 hPa | - | - | - | - |
| 1787752711 | 26.67° C | 52% | 1019.3 hPa | - | - | - | - |
| 1787750911 | 26.11° C | 52% | 1019.4 hPa | - | - | - | - |
| 1787750011 | 25.56° C | 51% | 1019.5 hPa | - | - | - | - |
| 1787749111 | 25.56° C | 51% | 1019.6 hPa | - | - | - | - |
| 1787748211 | 25° C | 52% | 1019.8 hPa | - | - | - | - |
| 1787747310 | 23.89° C | 54% | 1019.8 hPa | - | - | - | - |
| 1787746420 | 23.89° C | 55% | 1020.1 hPa | - | - | - | - |
| 1787745510 | 24.44° C | 53% | 1019.8 hPa | - | - | - | - |
| 1787744610 | 23.89° C | 55% | 1020.1 hPa | - | - | - | - |
| 1787743710 | 22.78° C | 56% | 1020.1 hPa | - | - | - | - |
| 1787742817 | 22.22° C | 58% | 1020.1 hPa | - | - | - | - |
| 1787741910 | 22.22° C | 59% | 1020.2 hPa | - | - | - | - |
| 1787741010 | 23.33° C | 56% | 1020.5 hPa | - | - | - | - |
| 1787740110 | 21.67° C | 59% | 1020.7 hPa | - | - | - | - |
| 1787739210 | 21.67° C | 61% | 1020.9 hPa | - | - | - | - |
| 1787738310 | 21.67° C | 60% | 1021.2 hPa | - | - | - | - |
| 1787737410 | 21.11° C | 60% | 1021.5 hPa | - | - | - | - |
| 1787736510 | 21.11° C | 58% | 1021.3 hPa | - | - | - | - |
* Rain since midnight (hover to see other rain measurements)
** Current wind speed in m/s (hover to see current wind gust speed)